Time;durP1;ratioP1;P1;durP2;ratioP2;P2;SDS_P1;SDS_P2;PMS_P1;PMS_P2;Temp;Humidity;BMP_temperature;BMP_pressure;BME280_temperature;BME280_humidity;BME280_pressure;Samples;Min_cycle;Max_cycle;Signal;HPM_P1;HPM_P2
2022/08/06 00:01:54;;;;;;;3.17;2.40;;;21.60;78.20;;;;;;5074234;28;20445;-51
2022/08/06 00:04:20;;;;;;;8.53;2.50;;;21.70;78.90;;;;;;5076752;28;20430;-53
2022/08/06 00:06:46;;;;;;;3.07;2.23;;;21.70;78.90;;;;;;5075753;28;20421;-52
2022/08/06 00:09:11;;;;;;;3.17;2.27;;;21.80;76.70;;;;;;5075527;28;20209;-51
2022/08/06 00:11:38;;;;;;;2.30;1.90;;;21.70;76.40;;;;;;5074472;28;20211;-53
2022/08/06 00:14:04;;;;;;;2.47;2.10;;;21.70;75.90;;;;;;5073001;28;20249;-54
2022/08/06 00:16:30;;;;;;;2.50;2.23;;;21.70;73.40;;;;;;5077165;28;20408;-51
2022/08/06 00:18:55;;;;;;;2.60;2.00;;;21.50;77.80;;;;;;5076358;28;20175;-53
2022/08/06 00:21:21;;;;;;;2.60;2.30;;;21.60;77.50;;;;;;5075677;28;20179;-54
2022/08/06 00:23:47;;;;;;;2.63;2.37;;;21.60;75.10;;;;;;5076223;28;20183;-53
2022/08/06 00:26:12;;;;;;;2.53;2.33;;;21.60;77.30;;;;;;5074996;28;20236;-53
2022/08/06 00:28:38;;;;;;;2.63;2.10;;;21.70;76.70;;;;;;5076640;28;20201;-51
2022/08/06 00:31:05;;;;;;;2.53;2.30;;;21.70;76.80;;;;;;5076356;28;20246;-53
2022/08/06 00:33:31;;;;;;;2.80;2.30;;;21.80;74.50;;;;;;5077589;28;20482;-55
2022/08/06 00:35:57;;;;;;;2.23;2.03;;;21.70;76.20;;;;;;5059346;28;20457;-53
2022/08/06 00:38:22;;;;;;;2.37;2.17;;;21.80;76.40;;;;;;5076885;28;20415;-54
2022/08/06 00:40:49;;;;;;;2.73;1.93;;;21.80;76.00;;;;;;5075048;28;20845;-54
2022/08/06 00:43:14;;;;;;;3.00;2.03;;;21.80;74.90;;;;;;5073292;28;20180;-50
2022/08/06 00:45:40;;;;;;;2.20;2.00;;;21.70;75.10;;;;;;5074089;28;20454;-53
2022/08/06 00:48:06;;;;;;;4.23;2.30;;;21.60;74.80;;;;;;5075142;28;20177;-51
2022/08/06 00:50:32;;;;;;;2.23;2.03;;;21.50;74.30;;;;;;5074955;28;20215;-54
2022/08/06 00:53:02;;;;;;;2.20;1.93;;;21.50;76.50;;;;;;5076911;28;20205;-54
2022/08/06 00:55:27;;;;;;;3.17;2.20;;;21.50;75.00;;;;;;5076210;28;20759;-52
2022/08/06 00:57:53;;;;;;;2.37;1.90;;;21.50;75.30;;;;;;5075644;28;20514;-54
2022/08/06 01:00:19;;;;;;;2.70;2.40;;;21.50;75.50;;;;;;5075617;28;20551;-53
2022/08/06 01:02:44;;;;;;;2.37;2.17;;;21.60;74.90;;;;;;5072736;28;20191;-55
2022/08/06 01:05:10;;;;;;;2.30;2.10;;;21.50;74.20;;;;;;5073420;28;20459;-51
2022/08/06 01:07:36;;;;;;;3.10;2.13;;;21.50;74.80;;;;;;5074516;28;20421;-53
2022/08/06 01:10:01;;;;;;;3.87;2.27;;;21.40;75.60;;;;;;5074314;28;20478;-54
2022/08/06 01:12:27;;;;;;;3.50;2.20;;;21.30;75.70;;;;;;5074561;28;20212;-53
2022/08/06 01:14:53;;;;;;;2.37;2.07;;;21.30;75.40;;;;;;5074741;28;20182;-54
2022/08/06 01:17:37;;;;;;;2.10;1.90;;;21.20;76.00;;;;;;5077296;28;20178;-53
2022/08/06 01:20:27;;;;;;;2.07;1.93;;;21.20;76.70;;;;;;5077573;28;20177;-54
2022/08/06 01:23:02;;;;;;;3.20;1.97;;;21.20;75.90;;;;;;5078029;28;20768;-54
2022/08/06 01:25:45;;;;;;;2.47;2.20;;;21.10;76.40;;;;;;5076635;28;20450;-51
2022/08/06 01:28:25;;;;;;;2.60;2.03;;;21.00;76.00;;;;;;5076367;28;20418;-52
2022/08/06 01:30:59;;;;;;;5.23;2.27;;;21.00;75.70;;;;;;5058763;28;20486;-51
2022/08/06 01:33:52;;;;;;;2.47;2.00;;;20.90;76.30;;;;;;5076507;28;20429;-52
2022/08/06 01:36:22;;;;;;;2.57;2.00;;;20.80;77.00;;;;;;5070558;28;20430;-52
2022/08/06 01:38:51;;;;;;;2.40;2.10;;;20.80;76.90;;;;;;5074893;28;20480;-55
2022/08/06 01:41:38;;;;;;;2.37;2.17;;;20.70;77.50;;;;;;5077339;28;20416;-54
2022/08/06 01:44:18;;;;;;;2.70;2.20;;;20.80;77.50;;;;;;5076128;28;20511;-53
2022/08/06 01:46:50;;;;;;;2.43;2.20;;;20.80;76.90;;;;;;5077303;28;20406;-53
2022/08/06 01:49:22;;;;;;;3.43;2.40;;;20.80;76.50;;;;;;5076625;28;20424;-50
2022/08/06 01:51:50;;;;;;;2.13;1.93;;;20.80;77.60;;;;;;5076825;28;20458;-51
2022/08/06 01:57:40;;;;;;;3.10;2.13;;;21.00;77.10;;;;;;5079248;28;20398;-52
2022/08/06 02:00:06;;;;;;;2.50;2.30;;;21.00;76.10;;;;;;5079312;28;20739;-54
2022/08/06 02:02:35;;;;;;;3.10;2.27;;;21.00;76.20;;;;;;5078578;28;20846;-54
2022/08/06 02:05:02;;;;;;;2.43;1.90;;;21.00;76.70;;;;;;5079429;28;20443;-53
2022/08/06 02:07:32;;;;;;;2.87;2.27;;;21.00;76.60;;;;;;5078114;28;20420;-52
2022/08/06 02:09:59;;;;;;;2.53;2.13;;;21.00;76.60;;;;;;5079443;28;20508;-54
2022/08/06 02:12:26;;;;;;;4.83;2.33;;;21.00;75.20;;;;;;5080102;28;20467;-54
2022/08/06 02:15:01;;;;;;;2.47;2.27;;;20.90;76.00;;;;;;5079982;28;20845;-53
2022/08/06 02:17:39;;;;;;;2.43;1.80;;;20.80;75.90;;;;;;5079605;28;20420;-52
2022/08/06 02:20:05;;;;;;;2.57;2.03;;;20.70;76.50;;;;;;5076805;28;20433;-50
2022/08/06 02:22:32;;;;;;;2.43;1.80;;;20.70;76.40;;;;;;5078210;28;20417;-54
2022/08/06 02:25:08;;;;;;;3.70;2.00;;;20.60;76.90;;;;;;5077645;28;20473;-53
2022/08/06 02:27:34;;;;;;;2.27;2.07;;;20.70;77.50;;;;;;5078712;28;20416;-53
2022/08/06 02:30:00;;;;;;;2.50;1.70;;;20.60;75.70;;;;;;5077722;28;20466;-54
2022/08/06 02:32:27;;;;;;;3.07;2.00;;;20.70;76.70;;;;;;5077077;28;20235;-54
2022/08/06 02:34:53;;;;;;;2.20;2.00;;;20.70;77.80;;;;;;5078773;28;20804;-54
2022/08/06 02:37:23;;;;;;;2.53;2.20;;;20.70;76.90;;;;;;5077106;28;20528;-52
2022/08/06 02:39:54;;;;;;;3.00;1.97;;;20.80;77.10;;;;;;5077874;28;20416;-54
2022/08/06 02:42:58;;;;;;;2.37;2.13;;;20.80;76.50;;;;;;5077423;28;20602;-50
2022/08/06 02:45:55;;;;;;;3.90;2.40;;;20.80;76.40;;;;;;5055703;28;20437;-51
2022/08/06 02:48:33;;;;;;;2.37;2.17;;;20.80;76.30;;;;;;5077744;28;20443;-52
2022/08/06 02:51:04;;;;;;;3.20;2.00;;;20.80;76.20;;;;;;5077496;28;20524;-50
2022/08/06 02:53:44;;;;;;;2.70;2.47;;;20.70;76.70;;;;;;5078717;28;20511;-51
2022/08/06 02:56:12;;;;;;;2.80;2.50;;;20.60;76.40;;;;;;5078083;28;20415;-51
2022/08/06 02:58:40;;;;;;;2.13;1.87;;;20.60;75.90;;;;;;5078180;28;20430;-52
2022/08/06 03:01:13;;;;;;;2.47;1.93;;;20.50;77.00;;;;;;5077128;28;20431;-50
2022/08/06 03:03:41;;;;;;;3.10;2.17;;;20.60;76.00;;;;;;5077753;28;20409;-52
2022/08/06 03:06:07;;;;;;;2.47;2.00;;;20.50;76.70;;;;;;5076838;28;20454;-51
2022/08/06 03:08:34;;;;;;;2.73;1.67;;;20.60;77.10;;;;;;5077575;28;20426;-53
2022/08/06 03:11:00;;;;;;;2.50;2.00;;;20.60;77.20;;;;;;5076288;28;20491;-52
2022/08/06 03:13:26;;;;;;;2.53;1.90;;;20.60;77.30;;;;;;5076657;28;20526;-50
2022/08/06 03:15:53;;;;;;;2.23;2.03;;;20.60;77.00;;;;;;5076149;28;20506;-52
2022/08/06 03:18:19;;;;;;;3.20;2.10;;;20.60;77.40;;;;;;5077497;28;20452;-51
2022/08/06 03:20:45;;;;;;;2.80;2.50;;;20.60;77.10;;;;;;5077354;28;20490;-51
2022/08/06 03:23:12;;;;;;;3.70;2.37;;;20.60;76.50;;;;;;5076499;28;20453;-52
2022/08/06 03:25:39;;;;;;;3.27;2.13;;;20.50;75.60;;;;;;5077391;28;20464;-55
2022/08/06 03:28:05;;;;;;;2.53;2.13;;;20.40;78.00;;;;;;5076870;28;20489;-51
2022/08/06 03:30:32;;;;;;;3.70;2.00;;;20.30;77.40;;;;;;5076150;28;20490;-50
2022/08/06 03:33:00;;;;;;;2.80;2.30;;;20.40;78.10;;;;;;5077795;28;20475;-55
2022/08/06 03:35:26;;;;;;;2.23;1.90;;;20.30;78.00;;;;;;5077099;28;20729;-52
2022/08/06 03:37:52;;;;;;;2.67;2.47;;;20.30;77.40;;;;;;5077086;28;20497;-53
2022/08/06 03:40:19;;;;;;;2.20;1.90;;;20.30;78.80;;;;;;5077614;28;20576;-50
2022/08/06 03:42:45;;;;;;;1.87;1.77;;;20.30;79.30;;;;;;5077364;28;20486;-52
2022/08/06 03:45:11;;;;;;;2.57;2.10;;;20.30;78.80;;;;;;5078501;28;20427;-52
2022/08/06 03:47:51;;;;;;;2.17;1.97;;;20.40;78.50;;;;;;5078301;28;20690;-53
2022/08/06 03:50:22;;;;;;;2.67;2.40;;;20.30;78.60;;;;;;5077309;28;20821;-53
2022/08/06 03:52:54;;;;;;;2.10;1.90;;;20.30;78.20;;;;;;5077796;28;20831;-55
2022/08/06 03:55:30;;;;;;;3.63;2.60;;;20.30;78.10;;;;;;5077187;28;20509;-50
2022/08/06 03:58:01;;;;;;;2.07;1.87;;;20.30;78.30;;;;;;5076477;28;20468;-54
2022/08/06 04:00:29;;;;;;;2.70;2.00;;;20.20;78.10;;;;;;5076889;28;20836;-51
2022/08/06 04:02:56;;;;;;;3.30;1.77;;;20.20;78.80;;;;;;5076671;28;20418;-51
2022/08/06 04:05:24;;;;;;;2.77;2.00;;;20.20;78.90;;;;;;5077902;28;20990;-53
2022/08/06 04:07:57;;;;;;;4.27;2.23;;;20.20;79.20;;;;;;5077917;28;20473;-50
2022/08/06 04:10:25;;;;;;;3.67;2.70;;;20.20;78.80;;;;;;5076909;28;20853;-52
2022/08/06 04:12:51;;;;;;;3.47;2.50;;;20.30;79.50;;;;;;5076580;28;20517;-51
2022/08/06 04:15:17;;;;;;;2.40;2.20;;;20.30;79.20;;;;;;5076501;28;20509;-53
2022/08/06 04:17:44;;;;;;;3.07;2.70;;;20.20;78.80;;;;;;5077295;28;20243;-52
2022/08/06 04:20:11;;;;;;;2.73;2.53;;;20.20;79.00;;;;;;5076731;28;20181;-53
2022/08/06 04:22:37;;;;;;;2.93;1.93;;;20.30;79.20;;;;;;5076695;28;20838;-51
2022/08/06 04:25:04;;;;;;;2.97;2.67;;;20.30;79.20;;;;;;5076509;28;20436;-53
2022/08/06 04:27:30;;;;;;;4.23;2.10;;;20.30;79.20;;;;;;5077800;28;20418;-51
2022/08/06 04:29:58;;;;;;;3.40;2.53;;;20.30;78.90;;;;;;5077001;28;20469;-51
2022/08/06 04:32:24;;;;;;;3.00;2.37;;;20.40;79.20;;;;;;5076381;28;20480;-57
2022/08/06 04:34:51;;;;;;;2.60;2.40;;;20.50;78.50;;;;;;5078237;28;20420;-58
2022/08/06 04:37:18;;;;;;;2.80;2.17;;;20.40;78.90;;;;;;5077025;28;20429;-64
2022/08/06 04:39:44;;;;;;;2.40;2.20;;;20.40;79.10;;;;;;5075667;28;20446;-64
2022/08/06 04:42:09;;;;;;;2.50;2.20;;;20.40;78.80;;;;;;5076483;28;20432;-65
2022/08/06 04:44:35;;;;;;;2.67;2.20;;;20.40;78.70;;;;;;5076101;28;20439;-64
2022/08/06 04:47:02;;;;;;;3.23;2.37;;;20.40;78.50;;;;;;5077762;28;20633;-65
2022/08/06 04:49:29;;;;;;;2.67;2.20;;;20.50;78.60;;;;;;5079080;28;20945;-65
2022/08/06 04:51:55;;;;;;;3.27;2.43;;;20.50;78.00;;;;;;5080699;28;20473;-64
2022/08/06 04:54:21;;;;;;;2.40;2.20;;;20.60;78.10;;;;;;5077180;28;20485;-64
2022/08/06 04:56:46;;;;;;;2.33;2.00;;;20.60;77.90;;;;;;5077467;28;20417;-64
2022/08/06 04:59:13;;;;;;;2.63;2.43;;;20.70;76.90;;;;;;5075918;28;20170;-64
2022/08/06 05:01:38;;;;;;;3.67;2.20;;;20.70;77.60;;;;;;5076516;28;20178;-63
2022/08/06 05:04:04;;;;;;;4.50;2.50;;;20.70;77.60;;;;;;5074602;28;20433;-64
2022/08/06 05:06:57;;;;;;;3.40;2.20;;;20.60;77.50;;;;;;5075456;28;20253;-64
2022/08/06 05:09:26;;;;;;;2.50;2.30;;;20.60;77.70;;;;;;5074814;28;20465;-64
2022/08/06 05:11:56;;;;;;;2.70;2.50;;;20.60;78.00;;;;;;5074346;28;20473;-64
2022/08/06 05:14:42;;;;;;;2.80;2.10;;;20.60;77.70;;;;;;5056703;28;20453;-64
2022/08/06 05:17:10;;;;;;;2.40;2.20;;;20.80;77.90;;;;;;5075003;28;20423;-64
2022/08/06 05:19:47;;;;;;;3.70;2.20;;;20.90;77.60;;;;;;5075613;28;20430;-65
2022/08/06 05:22:15;;;;;;;2.30;2.00;;;21.00;77.30;;;;;;5075326;28;20510;-64
2022/08/06 05:24:41;;;;;;;2.33;2.13;;;21.10;76.90;;;;;;5075902;28;20534;-64
2022/08/06 05:27:09;;;;;;;2.43;2.23;;;21.10;76.30;;;;;;5073647;28;20511;-63
2022/08/06 05:29:35;;;;;;;3.60;2.20;;;21.10;75.70;;;;;;5076323;28;20228;-64
2022/08/06 05:32:02;;;;;;;3.53;2.20;;;21.10;76.30;;;;;;5078518;28;20466;-64
2022/08/06 05:34:28;;;;;;;3.10;2.00;;;21.10;76.30;;;;;;5078588;28;20590;-64
2022/08/06 05:36:53;;;;;;;2.27;2.07;;;21.10;76.60;;;;;;5079182;28;20422;-64
2022/08/06 05:39:19;;;;;;;3.63;2.30;;;21.10;76.70;;;;;;5080107;28;20187;-64
2022/08/06 05:41:46;;;;;;;2.93;2.50;;;21.10;76.80;;;;;;5079994;28;20495;-64
2022/08/06 05:44:12;;;;;;;2.70;2.10;;;21.10;76.70;;;;;;5078977;28;20417;-64
2022/08/06 05:46:59;;;;;;;3.03;2.37;;;21.10;76.50;;;;;;5078545;28;20421;-65
2022/08/06 05:49:46;;;;;;;2.80;2.07;;;21.10;76.80;;;;;;5075955;28;20450;-65
2022/08/06 05:52:15;;;;;;;4.43;2.60;;;21.10;76.80;;;;;;5077135;28;20534;-65
2022/08/06 05:54:52;;;;;;;3.10;2.00;;;21.10;76.70;;;;;;5078256;28;20484;-65
2022/08/06 05:57:24;;;;;;;2.57;2.20;;;21.10;76.80;;;;;;5078033;28;20407;-64
2022/08/06 05:59:53;;;;;;;4.23;2.60;;;21.20;76.80;;;;;;5078125;28;20518;-65
2022/08/06 06:02:20;;;;;;;3.30;2.77;;;21.30;77.00;;;;;;5078090;28;20486;-64
2022/08/06 06:04:47;;;;;;;3.40;2.73;;;21.30;76.70;;;;;;5079060;28;20893;-65
2022/08/06 06:07:14;;;;;;;2.70;2.17;;;21.30;76.60;;;;;;5078404;28;20418;-64
2022/08/06 06:09:41;;;;;;;2.40;2.10;;;21.30;76.80;;;;;;5077476;28;20913;-64
2022/08/06 06:12:08;;;;;;;2.10;1.90;;;21.40;76.10;;;;;;5078923;28;20896;-63
2022/08/06 06:14:44;;;;;;;3.10;2.73;;;21.30;76.00;;;;;;5080603;28;20421;-64
2022/08/06 06:17:22;;;;;;;2.73;2.37;;;21.40;76.40;;;;;;5080284;28;20428;-64
2022/08/06 06:20:08;;;;;;;2.27;2.07;;;21.50;75.70;;;;;;5079640;28;20723;-64
2022/08/06 06:22:41;;;;;;;3.30;2.20;;;21.70;76.10;;;;;;5079099;28;20507;-64
2022/08/06 06:25:15;;;;;;;2.47;2.27;;;21.80;75.60;;;;;;5077678;28;20433;-65
2022/08/06 06:28:00;;;;;;;3.97;2.33;;;21.90;74.50;;;;;;5077871;28;20452;-64
2022/08/06 06:30:52;;;;;;;2.87;2.53;;;21.90;75.00;;;;;;5076517;28;20816;-65
2022/08/06 06:33:19;;;;;;;3.23;2.20;;;22.00;74.30;;;;;;5078323;28;20876;-65
2022/08/06 06:35:53;;;;;;;3.27;2.90;;;22.10;74.20;;;;;;5082451;28;20484;-65
2022/08/06 06:38:23;;;;;;;4.03;3.30;;;22.20;74.10;;;;;;5078408;28;20421;-65
2022/08/06 06:40:52;;;;;;;4.40;3.00;;;22.20;73.30;;;;;;5076302;28;20527;-65
2022/08/06 06:43:37;;;;;;;3.50;2.60;;;22.10;73.40;;;;;;5076988;28;20431;-65
2022/08/06 06:46:23;;;;;;;2.70;2.07;;;22.10;73.90;;;;;;5078228;28;20426;-65
2022/08/06 06:48:54;;;;;;;2.73;2.53;;;22.20;74.30;;;;;;5078383;28;20449;-65
2022/08/06 06:51:27;;;;;;;2.47;2.27;;;22.30;73.70;;;;;;5077831;28;20465;-65
2022/08/06 06:53:55;;;;;;;2.47;2.27;;;22.40;73.20;;;;;;5078445;28;20429;-66
2022/08/06 06:56:25;;;;;;;4.00;2.73;;;22.50;72.90;;;;;;5078597;28;20702;-66
2022/08/06 06:58:59;;;;;;;3.50;2.60;;;22.60;72.50;;;;;;5077138;28;20414;-65
2022/08/06 07:01:26;;;;;;;2.90;2.67;;;22.70;71.90;;;;;;5077851;28;20421;-66
2022/08/06 07:03:52;;;;;;;2.73;2.43;;;22.70;71.50;;;;;;5076699;28;20436;-66
2022/08/06 07:06:18;;;;;;;2.40;2.10;;;22.60;72.00;;;;;;5077733;28;20770;-66
2022/08/06 07:08:46;;;;;;;2.90;2.40;;;22.60;72.50;;;;;;5076506;28;20416;-66
2022/08/06 07:11:19;;;;;;;3.17;2.20;;;22.60;71.70;;;;;;5059748;28;20481;-66
2022/08/06 07:13:46;;;;;;;3.10;2.40;;;22.50;72.20;;;;;;5077445;28;20428;-66
2022/08/06 07:16:14;;;;;;;4.20;2.70;;;22.50;72.10;;;;;;5077288;28;20411;-65
2022/08/06 07:18:41;;;;;;;2.47;2.27;;;22.50;71.60;;;;;;5076598;28;20413;-65
2022/08/06 07:21:07;;;;;;;3.70;2.80;;;22.40;72.10;;;;;;5075446;28;20430;-66
2022/08/06 07:23:33;;;;;;;3.20;2.40;;;22.50;72.50;;;;;;5076478;28;20667;-66
2022/08/06 07:25:59;;;;;;;3.00;2.80;;;22.70;72.50;;;;;;5075576;28;20423;-66
2022/08/06 07:28:26;;;;;;;3.60;2.37;;;22.90;71.70;;;;;;5078082;28;20185;-65
2022/08/06 07:30:52;;;;;;;2.30;2.10;;;23.00;71.00;;;;;;5077076;28;20552;-66
2022/08/06 07:33:18;;;;;;;5.47;3.00;;;23.10;70.80;;;;;;5077314;28;20420;-66
2022/08/06 07:35:45;;;;;;;6.10;2.70;;;23.30;70.70;;;;;;5075268;28;20530;-66
2022/08/06 07:38:12;;;;;;;3.00;2.20;;;23.40;70.00;;;;;;5076518;28;20487;-66
2022/08/06 07:40:59;;;;;;;2.93;2.50;;;23.50;69.90;;;;;;5076679;28;20458;-65
2022/08/06 07:43:28;;;;;;;7.37;3.80;;;23.60;69.30;;;;;;5075988;28;20515;-65
2022/08/06 07:45:56;;;;;;;5.27;2.90;;;23.80;68.10;;;;;;5076849;28;20481;-65
2022/08/06 07:48:43;;;;;;;3.50;2.63;;;23.90;68.20;;;;;;5075430;28;20528;-64
2022/08/06 07:51:10;;;;;;;3.63;2.50;;;24.20;67.80;;;;;;5076722;28;20469;-65
2022/08/06 07:53:38;;;;;;;2.87;2.57;;;24.60;67.00;;;;;;5075982;28;20404;-66
2022/08/06 07:56:08;;;;;;;3.20;2.90;;;24.70;65.90;;;;;;5076546;28;20721;-65
2022/08/06 07:58:35;;;;;;;2.87;2.67;;;24.60;64.30;;;;;;5076378;28;20426;-64
2022/08/06 08:01:01;;;;;;;3.70;2.80;;;24.60;65.30;;;;;;5076214;28;20719;-67
2022/08/06 08:06:17;;;;;;;3.77;2.57;;;24.50;65.30;;;;;;5074755;28;20423;-65
2022/08/06 08:08:45;;;;;;;12.63;5.57;;;24.60;64.30;;;;;;5076242;28;20418;-65
2022/08/06 08:11:13;;;;;;;42.77;7.53;;;24.70;63.90;;;;;;5074807;28;20471;-66
2022/08/06 08:13:39;;;;;;;26.20;5.83;;;25.00;63.80;;;;;;5076045;28;20834;-66
2022/08/06 08:16:05;;;;;;;6.50;3.20;;;25.00;62.10;;;;;;5075403;28;20426;-65
2022/08/06 08:18:32;;;;;;;4.57;2.90;;;25.20;62.20;;;;;;5058302;28;20288;-65
2022/08/06 08:21:02;;;;;;;9.60;4.00;;;25.50;62.20;;;;;;5076009;28;20442;-66
2022/08/06 08:23:30;;;;;;;10.40;3.80;;;25.70;60.10;;;;;;5075383;28;20454;-65
2022/08/06 08:26:01;;;;;;;5.37;3.47;;;25.90;60.00;;;;;;5076079;28;20511;-66
2022/08/06 08:28:27;;;;;;;4.80;3.00;;;26.00;58.00;;;;;;5075932;28;20427;-65
2022/08/06 08:30:52;;;;;;;4.20;3.23;;;26.00;57.90;;;;;;5073730;28;20525;-65
2022/08/06 08:33:19;;;;;;;5.77;3.20;;;26.00;57.50;;;;;;5075689;28;20439;-65
2022/08/06 08:35:46;;;;;;;4.73;3.50;;;26.00;56.50;;;;;;5074794;28;20276;-66
2022/08/06 08:38:12;;;;;;;5.20;3.20;;;25.70;56.40;;;;;;5077098;28;20422;-65
2022/08/06 08:40:38;;;;;;;3.53;3.10;;;25.70;57.60;;;;;;5076401;28;20427;-65
2022/08/06 08:43:05;;;;;;;3.47;2.70;;;25.90;56.50;;;;;;5076999;28;20205;-66
2022/08/06 08:45:31;;;;;;;3.40;2.40;;;25.90;56.80;;;;;;5074882;28;20486;-65
2022/08/06 08:47:58;;;;;;;3.50;2.30;;;26.10;57.00;;;;;;5075663;28;20428;-65
2022/08/06 08:50:28;;;;;;;2.80;2.43;;;26.40;54.80;;;;;;5072453;28;20461;-65
2022/08/06 08:53:15;;;;;;;3.50;2.87;;;26.40;55.10;;;;;;5074938;28;20998;-65
2022/08/06 08:55:41;;;;;;;3.20;2.90;;;26.70;54.80;;;;;;5074170;28;20424;-66
2022/08/06 08:58:07;;;;;;;3.87;2.30;;;27.00;55.50;;;;;;5074139;28;20759;-66
2022/08/06 09:00:35;;;;;;;3.93;2.20;;;27.00;54.60;;;;;;5074349;28;20459;-66
2022/08/06 09:03:03;;;;;;;3.10;2.80;;;26.90;54.10;;;;;;5073985;28;20459;-65
2022/08/06 09:05:30;;;;;;;2.90;2.70;;;26.60;53.30;;;;;;5077485;28;20717;-66
2022/08/06 09:07:56;;;;;;;3.43;2.17;;;26.40;53.60;;;;;;5078570;28;20495;-66
2022/08/06 09:10:24;;;;;;;5.03;2.70;;;26.20;54.60;;;;;;5075831;28;20860;-66
2022/08/06 09:12:50;;;;;;;2.40;2.20;;;26.20;54.80;;;;;;5078456;28;20848;-66
2022/08/06 09:15:19;;;;;;;13.67;5.30;;;25.90;53.70;;;;;;5078170;28;20423;-66
2022/08/06 09:17:48;;;;;;;5.50;3.30;;;25.60;54.40;;;;;;5076817;28;20281;-66
2022/08/06 09:20:15;;;;;;;7.50;2.93;;;25.30;54.90;;;;;;5077848;28;20888;-66
2022/08/06 09:22:44;;;;;;;5.70;2.87;;;25.10;56.20;;;;;;5076295;28;20490;-66
2022/08/06 09:25:43;;;;;;;6.90;3.03;;;25.00;56.40;;;;;;5077548;28;20521;-66
2022/08/06 09:28:10;;;;;;;4.07;3.10;;;24.80;56.90;;;;;;5068128;28;20539;-66
2022/08/06 09:30:39;;;;;;;2.80;2.50;;;24.50;57.30;;;;;;5058461;28;20548;-66
2022/08/06 09:33:10;;;;;;;3.10;2.80;;;24.40;57.40;;;;;;5060656;28;20476;-66
2022/08/06 09:35:36;;;;;;;6.30;3.33;;;24.20;57.10;;;;;;5058569;28;20420;-66
2022/08/06 09:38:04;;;;;;;6.30;2.90;;;24.10;57.10;;;;;;5063171;28;20428;-66
2022/08/06 09:40:31;;;;;;;19.70;3.60;;;24.10;57.60;;;;;;5077527;28;20176;-66
2022/08/06 09:42:57;;;;;;;26.10;5.20;;;24.20;57.10;;;;;;5070806;28;20435;-65
2022/08/06 09:45:24;;;;;;;4.70;2.43;;;24.30;57.60;;;;;;5060745;28;20415;-65
2022/08/06 09:48:08;;;;;;;4.73;2.67;;;24.70;58.10;;;;;;5077849;28;20455;-66
2022/08/06 09:50:36;;;;;;;6.07;3.10;;;25.10;57.30;;;;;;5077241;28;20443;-66
2022/08/06 09:53:03;;;;;;;6.67;3.03;;;25.50;57.10;;;;;;5061074;28;20439;-66
2022/08/06 09:55:30;;;;;;;4.20;3.37;;;25.60;54.80;;;;;;5070850;28;20495;-66
2022/08/06 09:57:56;;;;;;;5.00;3.13;;;25.40;54.10;;;;;;5058837;28;20812;-66
2022/08/06 10:00:27;;;;;;;11.53;2.80;;;25.30;55.20;;;;;;5057874;28;20512;-66
2022/08/06 10:02:57;;;;;;;4.97;2.63;;;25.20;55.60;;;;;;5057040;28;20190;-66
2022/08/06 10:05:24;;;;;;;4.73;2.40;;;25.20;56.40;;;;;;5057459;28;20414;-66
2022/08/06 10:08:06;;;;;;;2.57;2.30;;;25.30;55.70;;;;;;5058232;28;20450;-66
2022/08/06 10:10:47;;;;;;;3.70;2.50;;;25.40;56.00;;;;;;5059758;28;20520;-66
2022/08/06 10:13:26;;;;;;;3.80;3.40;;;25.60;55.90;;;;;;5060252;28;20485;-62
2022/08/06 10:15:54;;;;;;;2.90;2.50;;;25.90;54.10;;;;;;5056842;28;20494;-67
2022/08/06 10:18:38;;;;;;;4.67;3.30;;;26.10;54.10;;;;;;5069137;28;20796;-67
2022/08/06 10:21:08;;;;;;;2.77;2.33;;;26.10;53.80;;;;;;5078788;28;20434;-66
2022/08/06 10:23:40;;;;;;;2.67;2.47;;;26.20;53.90;;;;;;5078207;28;20426;-67
2022/08/06 10:26:08;;;;;;;4.17;3.43;;;26.20;54.00;;;;;;5078956;28;20434;-66
2022/08/06 10:28:36;;;;;;;3.00;2.70;;;26.30;53.70;;;;;;5078006;28;20438;-67
2022/08/06 10:31:04;;;;;;;3.40;2.60;;;26.20;53.30;;;;;;5078630;28;20486;-66
2022/08/06 10:33:33;;;;;;;4.27;3.20;;;26.30;52.60;;;;;;5076756;28;20457;-65
2022/08/06 10:36:05;;;;;;;5.57;3.40;;;26.20;53.20;;;;;;5075450;28;20426;-66
2022/08/06 10:38:34;;;;;;;3.13;2.83;;;26.00;53.40;;;;;;5076561;28;20456;-65
2022/08/06 10:41:03;;;;;;;2.70;2.50;;;25.90;53.70;;;;;;5076996;28;20518;-65
2022/08/06 10:43:29;;;;;;;3.20;2.90;;;25.80;53.80;;;;;;5076965;28;20523;-65
2022/08/06 10:45:55;;;;;;;2.70;2.50;;;25.90;53.00;;;;;;5074592;28;20434;-66
2022/08/06 10:48:23;;;;;;;8.13;3.30;;;26.00;53.60;;;;;;5075403;28;20485;-65
2022/08/06 10:50:49;;;;;;;3.20;2.57;;;26.20;53.70;;;;;;5076354;28;20456;-65
2022/08/06 10:53:16;;;;;;;3.07;2.87;;;26.60;54.00;;;;;;5075458;28;20795;-66
2022/08/06 10:55:41;;;;;;;3.50;2.80;;;27.20;53.10;;;;;;5076780;28;20182;-66
2022/08/06 10:58:08;;;;;;;3.20;3.00;;;27.90;52.00;;;;;;5076992;28;20438;-67
2022/08/06 11:00:34;;;;;;;2.77;2.57;;;28.40;50.30;;;;;;5072974;28;20231;-66
2022/08/06 11:03:38;;;;;;;3.83;2.90;;;28.70;49.90;;;;;;5057176;28;20475;-66
2022/08/06 11:06:36;;;;;;;2.90;2.60;;;28.40;48.50;;;;;;5053438;28;20186;-67
2022/08/06 11:09:23;;;;;;;4.10;2.90;;;28.10;49.60;;;;;;5075792;28;20855;-67
2022/08/06 11:12:30;;;;;;;2.77;2.40;;;28.00;49.70;;;;;;5074398;28;20469;-65
2022/08/06 11:14:55;;;;;;;4.70;2.93;;;28.00;50.50;;;;;;5046055;28;20432;-65
2022/08/06 11:17:21;;;;;;;7.73;3.17;;;28.10;49.20;;;;;;5074200;28;20390;-66
2022/08/06 11:19:49;;;;;;;4.00;2.90;;;28.10;48.60;;;;;;5072708;28;20582;-66
2022/08/06 11:22:38;;;;;;;2.60;2.40;;;28.00;48.80;;;;;;5074625;28;20274;-67
2022/08/06 11:25:06;;;;;;;3.00;2.70;;;28.30;49.20;;;;;;5075937;28;20405;-66
2022/08/06 11:27:52;;;;;;;2.67;2.47;;;28.30;47.60;;;;;;5074293;28;20408;-66
2022/08/06 11:30:20;;;;;;;2.73;2.53;;;28.40;48.50;;;;;;5063751;28;20515;-65
2022/08/06 11:32:52;;;;;;;3.00;2.80;;;28.40;48.20;;;;;;5075250;28;20448;-65
2022/08/06 11:35:33;;;;;;;3.73;3.30;;;28.70;47.70;;;;;;5073861;28;20430;-66
2022/08/06 11:38:41;;;;;;;5.13;2.50;;;29.20;45.70;;;;;;5075350;28;20394;-65
2022/08/06 11:41:08;;;;;;;3.27;2.80;;;29.30;45.70;;;;;;5073952;28;20507;-66
2022/08/06 11:43:51;;;;;;;2.83;2.40;;;29.10;45.70;;;;;;5074942;28;20452;-65
2022/08/06 11:46:21;;;;;;;3.37;2.90;;;29.20;45.80;;;;;;5075675;28;20439;-65
2022/08/06 11:48:59;;;;;;;2.70;2.50;;;28.80;45.60;;;;;;5075695;28;20510;-66
2022/08/06 11:51:51;;;;;;;5.87;3.03;;;28.60;45.80;;;;;;5076091;28;20435;-66
2022/08/06 11:54:18;;;;;;;2.80;2.50;;;28.40;46.20;;;;;;5072427;28;20442;-62
2022/08/06 11:57:07;;;;;;;3.07;2.17;;;28.40;46.40;;;;;;5074351;28;20838;-64
2022/08/06 11:59:34;;;;;;;3.40;2.50;;;29.00;46.80;;;;;;5070740;28;20754;-63
2022/08/06 12:02:01;;;;;;;3.03;2.63;;;29.40;47.40;;;;;;5076947;28;20436;-64
2022/08/06 12:04:35;;;;;;;2.80;2.47;;;29.60;46.00;;;;;;5073731;28;20498;-63
2022/08/06 12:07:30;;;;;;;4.07;2.93;;;30.10;45.50;;;;;;5074082;28;20708;-63
2022/08/06 12:10:06;;;;;;;3.30;2.80;;;30.90;45.50;;;;;;5071228;28;20834;-63
2022/08/06 12:12:37;;;;;;;2.77;2.57;;;31.40;43.70;;;;;;5073918;28;20463;-63
2022/08/06 12:15:12;;;;;;;3.13;2.80;;;31.30;41.50;;;;;;5072453;28;20478;-65
2022/08/06 12:17:42;;;;;;;3.67;3.37;;;31.30;42.30;;;;;;5073094;28;20384;-64
2022/08/06 12:20:08;;;;;;;3.00;2.67;;;30.90;42.90;;;;;;5076094;28;20480;-63
2022/08/06 12:22:35;;;;;;;3.20;2.90;;;30.60;43.70;;;;;;5076201;28;20631;-64
2022/08/06 12:25:06;;;;;;;2.77;2.57;;;30.40;44.40;;;;;;5075566;28;20511;-63
2022/08/06 12:27:34;;;;;;;3.23;2.67;;;30.20;43.90;;;;;;5074576;28;20391;-63
2022/08/06 12:30:01;;;;;;;2.80;2.60;;;29.90;43.30;;;;;;5073489;28;20984;-63
2022/08/06 12:32:34;;;;;;;3.10;2.50;;;29.80;44.30;;;;;;5072744;28;20443;-65
2022/08/06 12:35:02;;;;;;;3.07;2.70;;;29.70;44.40;;;;;;5074435;28;20773;-64
2022/08/06 12:37:43;;;;;;;3.67;2.40;;;29.70;44.30;;;;;;5075044;28;20379;-64
2022/08/06 12:40:23;;;;;;;4.03;3.37;;;29.70;44.10;;;;;;5074573;28;20668;-63
2022/08/06 12:42:50;;;;;;;3.83;3.10;;;29.60;44.00;;;;;;5075233;28;20903;-64
2022/08/06 12:45:25;;;;;;;3.67;2.87;;;29.90;43.50;;;;;;5075529;28;20496;-64
2022/08/06 12:48:08;;;;;;;3.77;3.40;;;30.20;43.70;;;;;;5075558;28;20395;-64
2022/08/06 12:50:36;;;;;;;4.23;2.60;;;30.20;43.70;;;;;;5076098;28;20402;-63
2022/08/06 12:53:06;;;;;;;3.63;2.60;;;30.30;43.60;;;;;;5075977;28;20420;-63
2022/08/06 12:55:36;;;;;;;3.10;2.80;;;30.20;43.20;;;;;;5076566;28;20420;-61
2022/08/06 12:58:02;;;;;;;3.30;3.00;;;30.50;43.50;;;;;;5075928;28;20382;-64
2022/08/06 13:00:29;;;;;;;2.97;2.70;;;30.90;42.20;;;;;;5075485;28;20770;-64
2022/08/06 13:02:55;;;;;;;3.10;2.67;;;31.10;42.50;;;;;;5076298;28;20430;-64
2022/08/06 13:05:25;;;;;;;2.50;2.30;;;30.90;42.90;;;;;;5074881;28;20451;-64
2022/08/06 13:07:53;;;;;;;2.60;2.40;;;31.00;43.10;;;;;;5074799;28;20406;-63
2022/08/06 13:10:18;;;;;;;3.33;3.03;;;31.60;43.00;;;;;;5074980;28;20397;-64